createdAt,value
2024-04-22T00:00:58.081Z,4.47
2024-04-22T00:03:46.404Z,3.58
2024-04-22T00:06:14.283Z,3.50
2024-04-22T00:08:42.717Z,2.92
2024-04-22T00:11:11.191Z,3.10
2024-04-22T00:13:41.578Z,3.10
2024-04-22T00:16:09.609Z,3.13
2024-04-22T00:18:38.001Z,3.63
2024-04-22T00:21:06.160Z,3.92
2024-04-22T00:23:34.684Z,4.00
2024-04-22T00:26:02.681Z,2.97
2024-04-22T00:28:31.442Z,2.88
2024-04-22T00:30:59.609Z,2.47
2024-04-22T00:33:27.943Z,3.90
2024-04-22T00:35:56.718Z,2.70
2024-04-22T00:38:26.431Z,3.60
2024-04-22T00:40:55.032Z,3.20
2024-04-22T00:43:23.472Z,4.22
2024-04-22T00:45:51.952Z,4.50
2024-04-22T00:48:24.221Z,2.88
2024-04-22T00:50:53.350Z,3.30
2024-04-22T00:53:21.744Z,3.40
2024-04-22T00:55:50.380Z,2.92
2024-04-22T00:58:19.140Z,2.90
2024-04-22T01:00:48.051Z,2.50
2024-04-22T01:03:17.150Z,2.95
2024-04-22T01:05:45.134Z,2.72
2024-04-22T01:08:13.504Z,2.30
2024-04-22T01:10:41.641Z,2.38
2024-04-22T01:13:10.168Z,2.70
2024-04-22T01:15:38.144Z,2.40
2024-04-22T01:18:06.755Z,2.50
2024-04-22T01:20:34.766Z,2.55
2024-04-22T01:23:03.198Z,2.40
2024-04-22T01:25:32.365Z,2.75
2024-04-22T01:28:00.763Z,2.63
2024-04-22T01:30:28.682Z,2.20
2024-04-22T01:32:57.111Z,2.55
2024-04-22T01:35:25.068Z,2.47
2024-04-22T01:37:53.371Z,2.58
2024-04-22T01:40:21.245Z,2.58
2024-04-22T01:42:49.546Z,2.47
2024-04-22T01:45:17.622Z,2.63
2024-04-22T01:47:46.043Z,2.70
2024-04-22T01:50:14.071Z,2.63
2024-04-22T01:52:42.497Z,2.80
2024-04-22T01:55:11.609Z,2.63
2024-04-22T01:57:40.024Z,2.70
2024-04-22T02:00:08.303Z,2.75
2024-04-22T02:02:42.518Z,2.60
2024-04-22T02:05:10.450Z,2.75
2024-04-22T02:07:38.919Z,2.70
2024-04-22T02:10:17.308Z,3.05
2024-04-22T02:12:51.608Z,2.58
2024-04-22T02:15:19.547Z,2.67
2024-04-22T02:17:48.026Z,3.13
2024-04-22T02:20:15.956Z,3.03
2024-04-22T02:22:44.343Z,3.17
2024-04-22T02:25:12.278Z,3.00
2024-04-22T02:27:40.644Z,3.30
2024-04-22T02:30:08.858Z,3.10
2024-04-22T02:32:37.347Z,3.13
2024-04-22T02:35:05.630Z,3.47
2024-04-22T02:37:34.131Z,3.60
2024-04-22T02:40:02.014Z,3.45
2024-04-22T02:42:30.741Z,3.17
2024-04-22T02:44:58.711Z,3.22
2024-04-22T02:47:27.277Z,3.60
2024-04-22T02:49:55.208Z,3.70
2024-04-22T02:52:23.575Z,4.00
2024-04-22T02:54:51.549Z,4.38
2024-04-22T02:57:19.870Z,4.28
2024-04-22T02:59:47.855Z,3.67
2024-04-22T03:02:16.632Z,3.95
2024-04-22T03:04:44.539Z,3.80
2024-04-22T03:07:12.919Z,3.70
2024-04-22T03:09:44.149Z,3.58
2024-04-22T03:12:12.840Z,4.30
2024-04-22T03:14:41.034Z,3.78
2024-04-22T03:17:09.476Z,4.07
2024-04-22T03:19:37.557Z,4.05
2024-04-22T03:22:06.092Z,4.45
2024-04-22T03:24:34.076Z,4.20
2024-04-22T03:27:02.528Z,3.85
2024-04-22T03:29:30.431Z,4.43
2024-04-22T03:31:58.882Z,4.00
2024-04-22T03:34:26.943Z,4.20
2024-04-22T03:36:55.296Z,4.07
2024-04-22T03:39:23.207Z,4.10
2024-04-22T03:41:51.519Z,4.25
2024-04-22T03:44:19.432Z,4.28
2024-04-22T03:47:06.395Z,4.72
2024-04-22T03:49:52.814Z,4.22
2024-04-22T03:52:21.220Z,4.72
2024-04-22T03:54:49.171Z,4.35
2024-04-22T03:57:17.455Z,4.95
2024-04-22T03:59:46.269Z,4.90
2024-04-22T04:02:14.657Z,4.38
2024-04-22T04:04:42.750Z,4.70
2024-04-22T04:07:11.197Z,4.80
2024-04-22T04:09:39.193Z,4.53
2024-04-22T04:12:07.905Z,4.15
2024-04-22T04:14:36.177Z,4.18
2024-04-22T04:17:04.762Z,4.80
2024-04-22T04:19:32.856Z,4.38
2024-04-22T04:22:01.237Z,4.28
2024-04-22T04:24:29.160Z,4.80
2024-04-22T04:26:57.576Z,4.40
2024-04-22T04:29:25.442Z,4.72
2024-04-22T04:31:53.954Z,4.03
2024-04-22T04:34:21.936Z,3.72
2024-04-22T04:36:50.346Z,4.55
2024-04-22T04:39:18.287Z,3.65
2024-04-22T04:41:46.659Z,3.63
2024-04-22T04:44:14.749Z,3.85
2024-04-22T04:46:43.232Z,3.72
2024-04-22T04:49:11.775Z,3.53
2024-04-22T04:51:41.767Z,3.60
2024-04-22T04:54:09.858Z,4.07
2024-04-22T04:56:38.158Z,4.53
2024-04-22T04:59:06.043Z,4.00
2024-04-22T05:01:34.444Z,3.85
2024-04-22T05:04:04.070Z,4.15
2024-04-22T05:06:32.521Z,3.90
2024-04-22T05:09:00.364Z,4.53
2024-04-22T05:11:28.898Z,4.13
2024-04-22T05:13:56.888Z,4.05
2024-04-22T05:16:25.316Z,4.30
2024-04-22T05:18:53.166Z,4.15
2024-04-22T05:21:21.510Z,4.43
2024-04-22T05:23:49.485Z,4.70
2024-04-22T05:26:17.834Z,4.07
2024-04-22T05:28:47.273Z,4.72
2024-04-22T05:31:15.826Z,4.50
2024-04-22T05:34:02.367Z,4.50
2024-04-22T05:36:30.799Z,4.55
2024-04-22T05:38:59.697Z,4.38
2024-04-22T05:41:28.101Z,4.20
2024-04-22T05:43:56.008Z,4.47
2024-04-22T05:46:24.884Z,4.68
2024-04-22T05:48:52.862Z,4.60
2024-04-22T05:51:21.222Z,4.28
2024-04-22T05:53:49.229Z,4.63
2024-04-22T05:56:17.571Z,4.25
2024-04-22T05:58:45.464Z,4.78
2024-04-22T06:01:13.919Z,4.47
2024-04-22T06:03:41.909Z,5.05
2024-04-22T06:06:10.167Z,4.70
2024-04-22T06:08:38.109Z,5.00
2024-04-22T06:11:06.739Z,4.60
2024-04-22T06:13:34.677Z,4.70
2024-04-22T06:16:03.086Z,4.57
2024-04-22T06:18:31.001Z,4.20
2024-04-22T06:20:59.341Z,4.82
2024-04-22T06:23:27.197Z,4.32
2024-04-22T06:26:02.793Z,4.38
2024-04-22T06:28:30.959Z,4.18
2024-04-22T06:30:59.268Z,4.35
2024-04-22T06:33:27.782Z,4.10
2024-04-22T06:35:56.062Z,4.57
2024-04-22T06:38:24.171Z,4.45
2024-04-22T06:40:52.485Z,3.90
2024-04-22T06:43:20.402Z,4.45
2024-04-22T06:45:48.973Z,3.60
2024-04-22T06:48:17.038Z,3.88
2024-04-22T06:50:45.476Z,3.88
2024-04-22T06:53:13.417Z,3.75
2024-04-22T06:55:43.317Z,3.78
2024-04-22T06:58:11.541Z,3.72
2024-04-22T07:00:40.097Z,4.07
2024-04-22T07:03:09.119Z,3.50
2024-04-22T07:05:37.575Z,4.25
2024-04-22T07:08:05.755Z,3.47
2024-04-22T07:10:34.144Z,3.97
2024-04-22T07:13:02.180Z,3.65
2024-04-22T07:15:30.523Z,3.15
2024-04-22T07:17:58.542Z,3.30
2024-04-22T07:20:26.849Z,3.60
2024-04-22T07:22:54.752Z,3.28
2024-04-22T07:25:23.080Z,3.30
2024-04-22T07:27:51.212Z,3.08
2024-04-22T07:30:22.353Z,3.28
2024-04-22T07:32:50.876Z,3.38
2024-04-22T07:35:20.036Z,3.80
2024-04-22T07:37:49.282Z,3.00
2024-04-22T07:40:18.364Z,3.58
2024-04-22T07:42:47.891Z,3.42
2024-04-22T07:45:18.304Z,3.20
2024-04-22T07:47:47.163Z,3.10
2024-04-22T07:50:15.452Z,4.70
2024-04-22T07:52:43.869Z,3.22
2024-04-22T07:55:13.570Z,3.75
2024-04-22T07:57:42.589Z,4.45
2024-04-22T08:00:13.198Z,3.15
2024-04-22T08:02:41.796Z,3.10
2024-04-22T08:05:10.634Z,3.10
2024-04-22T08:07:41.135Z,3.28
2024-04-22T08:10:09.720Z,3.13
2024-04-22T08:12:38.246Z,3.03
2024-04-22T08:15:06.882Z,3.10
2024-04-22T08:17:34.988Z,4.18
2024-04-22T08:20:03.485Z,4.50
2024-04-22T08:22:33.114Z,3.90
2024-04-22T08:25:04.027Z,4.32
2024-04-22T08:27:32.209Z,3.38
2024-04-22T08:30:00.774Z,2.85
2024-04-22T08:32:28.975Z,2.53
2024-04-22T08:34:57.444Z,2.65
2024-04-22T08:37:25.595Z,2.47
2024-04-22T08:39:54.021Z,3.00
2024-04-22T08:42:26.911Z,2.88
2024-04-22T08:44:56.557Z,2.75
2024-04-22T08:47:28.259Z,2.80
2024-04-22T08:50:00.244Z,3.20
2024-04-22T08:52:33.442Z,2.72
2024-04-22T08:55:08.746Z,2.50
2024-04-22T08:57:37.261Z,2.78
2024-04-22T09:00:10.049Z,2.67
2024-04-22T09:02:38.110Z,2.90
2024-04-22T09:05:08.754Z,3.33
2024-04-22T09:07:37.471Z,2.75
2024-04-22T09:10:34.661Z,2.72
2024-04-22T09:13:02.775Z,2.45
2024-04-22T09:15:33.358Z,2.75
2024-04-22T09:18:03.176Z,2.97
2024-04-22T09:20:35.081Z,3.28
2024-04-22T09:23:03.394Z,2.78
2024-04-22T09:25:33.183Z,3.00
2024-04-22T09:28:02.502Z,2.70
2024-04-22T09:33:01.185Z,2.92
2024-04-22T09:35:29.913Z,2.72
2024-04-22T09:37:58.569Z,3.15
2024-04-22T09:40:27.926Z,3.20
2024-04-22T09:42:56.467Z,3.08
2024-04-22T09:45:25.030Z,3.20
2024-04-22T09:47:54.881Z,2.95
2024-04-22T09:50:49.282Z,3.30
2024-04-22T09:53:19.004Z,3.00
2024-04-22T09:55:48.015Z,4.00
2024-04-22T09:58:17.360Z,3.88
2024-04-22T10:00:47.864Z,3.50
2024-04-22T10:03:17.442Z,3.22
2024-04-22T10:05:47.702Z,3.10
2024-04-22T10:08:17.692Z,3.08
2024-04-22T10:10:46.166Z,3.10
2024-04-22T10:13:14.396Z,3.55
2024-04-22T10:15:43.373Z,2.75
2024-04-22T10:18:12.225Z,3.70
2024-04-22T10:20:43.974Z,5.53
2024-04-22T10:23:13.948Z,3.47
2024-04-22T10:25:42.539Z,3.13
2024-04-22T10:28:10.516Z,3.75
2024-04-22T10:30:40.863Z,3.20
2024-04-22T10:35:37.348Z,4.15
2024-04-22T10:38:05.470Z,4.60
2024-04-22T10:40:33.786Z,4.03
2024-04-22T10:43:01.912Z,4.53
2024-04-22T10:45:30.582Z,5.20
2024-04-22T10:48:08.464Z,4.30
2024-04-22T10:50:45.629Z,4.82
2024-04-22T10:53:13.834Z,4.72
2024-04-22T10:55:42.197Z,4.93
2024-04-22T10:58:11.050Z,5.13
2024-04-22T11:00:39.493Z,8.68
2024-04-22T11:03:08.932Z,4.70
2024-04-22T11:05:37.547Z,9.32
2024-04-22T11:08:07.820Z,5.15
2024-04-22T11:10:42.967Z,5.07
2024-04-22T11:13:12.151Z,5.50
2024-04-22T11:15:40.657Z,5.15
2024-04-22T11:18:09.719Z,4.88
2024-04-22T11:20:38.411Z,5.30
2024-04-22T11:23:06.709Z,4.70
2024-04-22T11:25:35.217Z,5.20
2024-04-22T11:28:03.175Z,4.78
2024-04-22T11:30:31.488Z,4.82
2024-04-22T11:32:59.699Z,4.55
2024-04-22T11:35:28.285Z,4.10
2024-04-22T11:37:56.289Z,4.25
2024-04-22T11:40:24.631Z,4.45
2024-04-22T11:42:52.670Z,5.18
2024-04-22T11:45:23.590Z,4.53
2024-04-22T11:47:51.792Z,4.68
2024-04-22T11:50:20.256Z,4.45
2024-04-22T11:52:48.253Z,3.53
2024-04-22T11:55:16.845Z,4.10
2024-04-22T11:57:44.926Z,4.40
2024-04-22T12:00:13.770Z,4.30
2024-04-22T12:02:41.783Z,4.50
2024-04-22T12:05:15.548Z,4.07
2024-04-22T12:07:44.506Z,4.53
2024-04-22T12:10:13.291Z,4.22
2024-04-22T12:12:41.462Z,4.60
2024-04-22T12:15:10.389Z,4.15
2024-04-22T12:17:38.413Z,3.70
2024-04-22T12:20:06.957Z,3.58
2024-04-22T12:22:35.085Z,3.65
2024-04-22T12:25:03.635Z,4.00
2024-04-22T12:27:31.911Z,4.05
2024-04-22T12:30:00.294Z,4.07
2024-04-22T12:32:30.451Z,5.00
2024-04-22T12:35:02.186Z,3.72
2024-04-22T12:37:33.344Z,4.28
2024-04-22T12:40:01.687Z,3.78
2024-04-22T12:42:29.689Z,3.35
2024-04-22T12:44:58.081Z,3.70
2024-04-22T12:47:44.860Z,4.20
2024-04-22T12:50:32.045Z,3.92
2024-04-22T12:53:00.064Z,3.15
2024-04-22T12:55:28.369Z,4.20
2024-04-22T12:57:58.429Z,5.10
2024-04-22T13:00:27.685Z,3.80
2024-04-22T13:02:57.195Z,3.70
2024-04-22T13:05:28.675Z,3.85
2024-04-22T13:07:56.836Z,3.60
2024-04-22T13:10:25.307Z,4.20
2024-04-22T13:12:53.616Z,4.07
2024-04-22T13:15:22.032Z,6.40
2024-04-22T13:17:50.108Z,4.70
2024-04-22T13:20:18.507Z,5.55
2024-04-22T13:22:46.701Z,5.38
2024-04-22T13:25:15.120Z,5.85
2024-04-22T13:27:43.365Z,6.50
2024-04-22T13:30:14.192Z,5.18
2024-04-22T13:32:44.918Z,5.18
2024-04-22T13:35:13.512Z,5.30
2024-04-22T13:37:41.549Z,5.25
2024-04-22T13:40:10.260Z,5.93
2024-04-22T13:42:42.608Z,5.80
2024-04-22T13:45:14.153Z,7.47
2024-04-22T13:47:42.178Z,5.85
2024-04-22T13:50:10.568Z,7.90
2024-04-22T13:52:42.210Z,7.18
2024-04-22T13:55:12.671Z,5.28
2024-04-22T13:57:40.833Z,4.90
2024-04-22T14:00:12.256Z,5.30
2024-04-22T14:02:42.564Z,6.07
2024-04-22T14:05:15.013Z,6.97
2024-04-22T14:07:44.370Z,5.20
2024-04-22T14:10:12.805Z,5.70
2024-04-22T14:12:40.882Z,4.88
2024-04-22T14:15:09.499Z,5.95
2024-04-22T14:17:40.621Z,4.53
2024-04-22T14:20:09.564Z,5.80
2024-04-22T14:22:37.452Z,8.05
2024-04-22T14:25:06.115Z,5.63
2024-04-22T14:27:37.052Z,4.90
2024-04-22T14:30:05.640Z,6.78
2024-04-22T14:32:33.592Z,6.82
2024-04-22T14:35:02.721Z,9.65
2024-04-22T14:37:31.804Z,6.45
2024-04-22T14:40:00.259Z,6.00
2024-04-22T14:42:28.282Z,4.75
2024-04-22T14:44:56.687Z,24.98
2024-04-22T14:47:24.643Z,5.80
2024-04-22T14:49:53.213Z,6.18
2024-04-22T14:52:21.269Z,19.35
2024-04-22T14:54:49.676Z,11.75
2024-04-22T14:57:17.574Z,30.75
2024-04-22T14:59:45.900Z,5.88
2024-04-22T15:02:16.973Z,5.07
2024-04-22T15:04:45.567Z,5.40
2024-04-22T15:07:15.954Z,5.38
2024-04-22T15:09:47.271Z,4.15
2024-04-22T15:12:15.441Z,4.40
2024-04-22T15:14:43.818Z,4.90
2024-04-22T15:17:12.310Z,4.70
2024-04-22T15:19:44.074Z,4.03
2024-04-22T15:22:12.421Z,5.25
2024-04-22T15:24:40.961Z,4.20
2024-04-22T15:27:08.948Z,4.15
2024-04-22T15:29:37.494Z,4.07
2024-04-22T15:32:05.658Z,3.78
2024-04-22T15:34:34.293Z,4.00
2024-04-22T15:37:06.159Z,7.07
2024-04-22T15:39:35.216Z,6.90
2024-04-22T15:42:03.260Z,4.60
2024-04-22T15:44:31.883Z,3.80
2024-04-22T15:47:01.650Z,4.28
2024-04-22T15:49:30.307Z,7.05
2024-04-22T15:52:00.761Z,6.10
2024-04-22T15:54:30.866Z,6.85
2024-04-22T15:56:58.887Z,8.75
2024-04-22T15:59:27.410Z,8.32
2024-04-22T16:01:55.467Z,6.93
2024-04-22T16:04:23.984Z,6.40
2024-04-22T16:06:52.100Z,5.82
2024-04-22T16:09:20.589Z,5.68
2024-04-22T16:11:48.967Z,8.13
2024-04-22T16:14:17.410Z,10.77
2024-04-22T16:16:45.407Z,6.57
2024-04-22T16:19:13.773Z,11.40
2024-04-22T16:21:44.851Z,6.22
2024-04-22T16:24:13.332Z,6.68
2024-04-22T16:26:41.205Z,8.65
2024-04-22T16:29:11.487Z,8.27
2024-04-22T16:34:07.818Z,13.73
2024-04-22T16:36:35.769Z,8.05
2024-04-22T16:39:04.522Z,5.93
2024-04-22T16:41:32.541Z,6.63
2024-04-22T16:44:00.976Z,6.95
2024-04-22T16:46:29.025Z,9.93
2024-04-22T16:48:57.360Z,12.57
2024-04-22T16:51:25.294Z,12.23
2024-04-22T16:53:53.621Z,8.15
2024-04-22T16:56:21.650Z,7.68
2024-04-22T16:58:50.047Z,5.40
2024-04-22T17:01:18.262Z,8.93
2024-04-22T17:03:47.009Z,10.52
2024-04-22T17:06:14.937Z,6.30
2024-04-22T17:08:43.372Z,7.30
2024-04-22T17:11:11.846Z,6.13
2024-04-22T17:13:40.503Z,5.88
2024-04-22T17:16:10.675Z,6.00
2024-04-22T17:18:42.126Z,5.55
2024-04-22T17:21:10.292Z,7.07
2024-04-22T17:23:39.322Z,7.28
2024-04-22T17:26:07.488Z,10.15
2024-04-22T17:28:35.814Z,6.50
2024-04-22T17:31:03.837Z,7.65
2024-04-22T17:33:34.739Z,10.65
2024-04-22T17:36:03.014Z,8.32
2024-04-22T17:38:32.122Z,7.07
2024-04-22T17:41:00.209Z,9.40
2024-04-22T17:43:28.638Z,7.45
2024-04-22T17:46:06.146Z,5.65
2024-04-22T17:48:35.064Z,6.93
2024-04-22T17:51:03.414Z,10.95
2024-04-22T17:53:34.035Z,13.10
2024-04-22T17:56:02.463Z,10.75
2024-04-22T17:58:31.062Z,10.43
2024-04-22T18:00:59.091Z,8.90
2024-04-22T18:03:27.697Z,7.93
2024-04-22T18:05:55.756Z,10.88
2024-04-22T18:08:24.072Z,6.97
2024-04-22T18:10:52.177Z,7.28
2024-04-22T18:13:20.876Z,7.50
2024-04-22T18:15:49.170Z,6.65
2024-04-22T18:18:17.515Z,6.38
2024-04-22T18:20:48.399Z,6.47
2024-04-22T18:23:17.233Z,6.68
2024-04-22T18:25:46.451Z,7.05
2024-04-22T18:28:14.863Z,14.30
2024-04-22T18:30:48.575Z,6.75
2024-04-22T18:33:19.868Z,8.85
2024-04-22T18:35:54.551Z,6.35
2024-04-22T18:38:23.839Z,6.10
2024-04-22T18:40:51.836Z,7.50
2024-04-22T18:43:20.363Z,6.35
2024-04-22T18:45:48.284Z,7.72
2024-04-22T18:48:16.920Z,6.90
2024-04-22T18:50:44.872Z,6.05
2024-04-22T18:53:13.647Z,5.18
2024-04-22T18:55:41.506Z,6.65
2024-04-22T18:58:09.964Z,7.72
2024-04-22T19:00:37.939Z,9.48
2024-04-22T19:03:06.462Z,12.15
2024-04-22T19:05:35.017Z,7.22
2024-04-22T19:08:03.574Z,6.15
2024-04-22T19:10:31.552Z,6.45
2024-04-22T19:13:01.340Z,7.82
2024-04-22T19:15:30.189Z,7.20
2024-04-22T19:17:58.655Z,9.10
2024-04-22T19:20:26.784Z,10.65
2024-04-22T19:22:55.164Z,9.13
2024-04-22T19:25:23.190Z,6.90
2024-04-22T19:27:52.386Z,6.45
2024-04-22T19:30:20.421Z,9.30
2024-04-22T19:32:48.830Z,11.32
2024-04-22T19:35:17.036Z,11.25
2024-04-22T19:37:45.505Z,11.32
2024-04-22T19:40:13.598Z,10.95
2024-04-22T19:42:44.115Z,13.20
2024-04-22T19:45:12.124Z,14.20
2024-04-22T19:47:40.522Z,15.48
2024-04-22T19:50:08.594Z,26.15
2024-04-22T19:52:40.151Z,29.50
2024-04-22T19:55:08.204Z,16.85
2024-04-22T19:57:36.545Z,9.75
2024-04-22T20:00:05.411Z,10.60
2024-04-22T20:02:36.498Z,10.52
2024-04-22T20:05:04.929Z,6.30
2024-04-22T20:07:33.376Z,8.73
2024-04-22T20:10:01.324Z,16.65
2024-04-22T20:12:29.770Z,15.25
2024-04-22T20:14:57.695Z,12.18
2024-04-22T20:17:52.475Z,12.15
2024-04-22T20:20:20.442Z,13.93
2024-04-22T20:22:48.800Z,11.15
2024-04-22T20:25:16.733Z,11.30
2024-04-22T20:27:46.966Z,14.85
2024-04-22T20:32:44.355Z,8.07
2024-04-22T20:35:12.380Z,10.75
2024-04-22T20:37:40.897Z,10.00
2024-04-22T20:40:09.081Z,13.27
2024-04-22T20:42:37.428Z,11.60
2024-04-22T20:45:05.439Z,11.23
2024-04-22T20:47:33.802Z,7.45
2024-04-22T20:50:01.739Z,5.60
2024-04-22T20:52:30.106Z,8.07
2024-04-22T20:54:57.983Z,7.65
2024-04-22T20:57:26.438Z,8.70
2024-04-22T20:59:54.332Z,9.63
2024-04-22T21:02:22.598Z,12.10
2024-04-22T21:04:50.515Z,12.98
2024-04-22T21:07:18.901Z,18.17
2024-04-22T21:09:47.042Z,13.65
2024-04-22T21:12:16.173Z,12.13
2024-04-22T21:14:44.109Z,11.35
2024-04-22T21:17:12.502Z,11.18
2024-04-22T21:19:40.499Z,9.73
2024-04-22T21:22:08.810Z,8.73
2024-04-22T21:24:36.720Z,9.60
2024-04-22T21:27:05.270Z,9.27
2024-04-22T21:29:33.229Z,9.93
2024-04-22T21:32:01.479Z,9.35
2024-04-22T21:34:29.667Z,11.23
2024-04-22T21:36:58.157Z,14.65
2024-04-22T21:39:26.544Z,13.52
2024-04-22T21:41:54.810Z,14.25
2024-04-22T21:44:22.764Z,14.38
2024-04-22T21:46:51.051Z,15.32
2024-04-22T21:49:18.927Z,18.75
2024-04-22T21:51:47.172Z,20.50
2024-04-22T21:54:20.505Z,19.38
2024-04-22T21:56:48.939Z,17.00
2024-04-22T21:59:35.744Z,20.75
2024-04-22T22:02:22.998Z,18.88
2024-04-22T22:05:10.119Z,18.13
2024-04-22T22:07:38.935Z,13.38
2024-04-22T22:10:07.201Z,13.40
2024-04-22T22:12:35.516Z,18.10
2024-04-22T22:15:04.090Z,16.17
2024-04-22T22:17:32.503Z,12.90
2024-04-22T22:20:00.623Z,7.22
2024-04-22T22:22:29.891Z,9.07
2024-04-22T22:24:57.809Z,8.70
2024-04-22T22:27:26.058Z,11.30
2024-04-22T22:29:53.896Z,10.27
2024-04-22T22:32:22.415Z,9.50
2024-04-22T22:34:50.499Z,9.30
2024-04-22T22:37:18.949Z,9.35
2024-04-22T22:39:49.468Z,8.93
2024-04-22T22:42:19.269Z,8.95
2024-04-22T22:44:47.119Z,7.88
2024-04-22T22:47:15.552Z,7.60
2024-04-22T22:49:43.584Z,8.02
2024-04-22T22:52:11.936Z,7.60
2024-04-22T22:54:39.854Z,8.32
2024-04-22T22:57:09.924Z,7.97
2024-04-22T22:59:37.916Z,8.68
2024-04-22T23:02:06.360Z,7.65
2024-04-22T23:04:34.273Z,7.60
2024-04-22T23:07:03.199Z,9.50
2024-04-22T23:09:31.630Z,8.45
2024-04-22T23:11:59.911Z,7.78
2024-04-22T23:14:28.105Z,7.10
2024-04-22T23:16:56.565Z,7.00
2024-04-22T23:19:24.573Z,7.20
2024-04-22T23:21:52.895Z,7.90
2024-04-22T23:24:20.770Z,8.57
2024-04-22T23:26:52.605Z,8.98
2024-04-22T23:29:20.543Z,9.93
2024-04-22T23:31:48.881Z,10.52
2024-04-22T23:34:17.976Z,10.18
2024-04-22T23:36:49.945Z,8.88
2024-04-22T23:39:18.431Z,9.15
2024-04-22T23:41:46.922Z,9.38
2024-04-22T23:44:15.242Z,11.07
2024-04-22T23:46:53.441Z,12.10
2024-04-22T23:49:21.891Z,13.90
2024-04-22T23:51:50.353Z,14.63
2024-04-22T23:54:18.336Z,10.60
2024-04-22T23:56:46.780Z,8.88
2024-04-22T23:59:14.606Z,7.60
